sensor_id;sensor_type;location;lat;lon;timestamp;P1;durP1;ratioP1;P2;durP2;ratioP2
29478;SDS011;16437;41.836;23.480;2022-11-21T00:05:02;6.75;;;4.25;;
29478;SDS011;16437;41.836;23.480;2022-11-21T00:10:29;6.80;;;4.25;;
29478;SDS011;16437;41.836;23.480;2022-11-21T00:15:56;5.58;;;3.72;;
29478;SDS011;16437;41.836;23.480;2022-11-21T00:21:28;6.22;;;3.95;;
29478;SDS011;16437;41.836;23.480;2022-11-21T00:26:54;4.87;;;3.52;;
29478;SDS011;16437;41.836;23.480;2022-11-21T00:32:20;5.87;;;3.87;;
29478;SDS011;16437;41.836;23.480;2022-11-21T00:37:46;4.62;;;2.85;;
29478;SDS011;16437;41.836;23.480;2022-11-21T00:43:14;4.97;;;2.60;;
29478;SDS011;16437;41.836;23.480;2022-11-21T00:48:41;3.47;;;1.92;;
29478;SDS011;16437;41.836;23.480;2022-11-21T00:54:07;3.75;;;1.72;;
29478;SDS011;16437;41.836;23.480;2022-11-21T00:59:34;3.98;;;1.67;;
29478;SDS011;16437;41.836;23.480;2022-11-21T01:05:00;3.72;;;1.77;;
29478;SDS011;16437;41.836;23.480;2022-11-21T01:10:27;4.58;;;1.42;;
29478;SDS011;16437;41.836;23.480;2022-11-21T01:15:53;2.67;;;1.80;;
29478;SDS011;16437;41.836;23.480;2022-11-21T01:21:31;2.65;;;1.62;;
29478;SDS011;16437;41.836;23.480;2022-11-21T01:26:55;3.62;;;1.80;;
29478;SDS011;16437;41.836;23.480;2022-11-21T01:32:21;2.75;;;1.70;;
29478;SDS011;16437;41.836;23.480;2022-11-21T01:37:48;3.37;;;1.77;;
29478;SDS011;16437;41.836;23.480;2022-11-21T01:43:15;2.75;;;1.47;;
29478;SDS011;16437;41.836;23.480;2022-11-21T02:05:28;2.75;;;1.45;;
29478;SDS011;16437;41.836;23.480;2022-11-21T02:16:30;2.60;;;1.35;;
29478;SDS011;16437;41.836;23.480;2022-11-21T02:22:00;2.75;;;1.25;;
29478;SDS011;16437;41.836;23.480;2022-11-21T02:27:27;3.10;;;1.62;;
29478;SDS011;16437;41.836;23.480;2022-11-21T02:32:54;3.17;;;1.27;;
29478;SDS011;16437;41.836;23.480;2022-11-21T02:38:25;3.50;;;1.40;;
29478;SDS011;16437;41.836;23.480;2022-11-21T02:55:01;3.08;;;1.50;;
29478;SDS011;16437;41.836;23.480;2022-11-21T03:00:27;2.62;;;1.27;;
29478;SDS011;16437;41.836;23.480;2022-11-21T03:05:54;2.58;;;1.35;;
29478;SDS011;16437;41.836;23.480;2022-11-21T03:11:20;2.47;;;1.40;;
29478;SDS011;16437;41.836;23.480;2022-11-21T03:16:47;2.92;;;1.15;;
29478;SDS011;16437;41.836;23.480;2022-11-21T03:22:13;4.03;;;1.62;;
29478;SDS011;16437;41.836;23.480;2022-11-21T03:27:40;3.95;;;1.57;;
29478;SDS011;16437;41.836;23.480;2022-11-21T03:33:07;2.83;;;1.27;;
29478;SDS011;16437;41.836;23.480;2022-11-21T03:38:33;2.08;;;1.27;;
29478;SDS011;16437;41.836;23.480;2022-11-21T03:49:29;4.90;;;1.60;;
29478;SDS011;16437;41.836;23.480;2022-11-21T03:54:55;3.92;;;1.27;;
29478;SDS011;16437;41.836;23.480;2022-11-21T04:00:22;2.60;;;1.30;;
29478;SDS011;16437;41.836;23.480;2022-11-21T04:05:48;3.25;;;1.35;;
29478;SDS011;16437;41.836;23.480;2022-11-21T04:11:15;1.77;;;1.20;;
29478;SDS011;16437;41.836;23.480;2022-11-21T04:16:42;3.30;;;1.60;;
29478;SDS011;16437;41.836;23.480;2022-11-21T04:22:09;3.65;;;1.50;;
29478;SDS011;16437;41.836;23.480;2022-11-21T04:27:35;2.60;;;1.20;;
29478;SDS011;16437;41.836;23.480;2022-11-21T04:33:02;2.95;;;1.47;;
29478;SDS011;16437;41.836;23.480;2022-11-21T04:38:28;3.10;;;1.52;;
29478;SDS011;16437;41.836;23.480;2022-11-21T04:43:54;3.67;;;1.82;;
29478;SDS011;16437;41.836;23.480;2022-11-21T04:49:20;4.15;;;1.82;;
29478;SDS011;16437;41.836;23.480;2022-11-21T04:54:47;3.72;;;1.92;;
29478;SDS011;16437;41.836;23.480;2022-11-21T05:00:14;2.62;;;1.45;;
29478;SDS011;16437;41.836;23.480;2022-11-21T05:05:42;3.35;;;2.02;;
29478;SDS011;16437;41.836;23.480;2022-11-21T05:11:08;3.62;;;2.05;;
29478;SDS011;16437;41.836;23.480;2022-11-21T05:16:53;3.15;;;2.02;;
29478;SDS011;16437;41.836;23.480;2022-11-21T05:22:20;4.17;;;2.20;;
29478;SDS011;16437;41.836;23.480;2022-11-21T05:27:46;4.00;;;1.95;;
29478;SDS011;16437;41.836;23.480;2022-11-21T05:33:12;3.17;;;2.12;;
29478;SDS011;16437;41.836;23.480;2022-11-21T05:38:39;5.40;;;2.50;;
29478;SDS011;16437;41.836;23.480;2022-11-21T05:44:05;5.22;;;2.37;;
29478;SDS011;16437;41.836;23.480;2022-11-21T05:49:32;3.80;;;2.50;;
29478;SDS011;16437;41.836;23.480;2022-11-21T05:54:58;5.80;;;3.25;;
29478;SDS011;16437;41.836;23.480;2022-11-21T06:00:25;5.33;;;2.62;;
29478;SDS011;16437;41.836;23.480;2022-11-21T06:06:14;5.05;;;2.72;;
29478;SDS011;16437;41.836;23.480;2022-11-21T06:11:28;4.95;;;2.55;;
29478;SDS011;16437;41.836;23.480;2022-11-21T06:16:55;3.85;;;2.40;;
29478;SDS011;16437;41.836;23.480;2022-11-21T06:22:21;6.05;;;2.40;;
29478;SDS011;16437;41.836;23.480;2022-11-21T06:27:48;4.58;;;2.40;;
29478;SDS011;16437;41.836;23.480;2022-11-21T06:33:14;4.28;;;2.50;;
29478;SDS011;16437;41.836;23.480;2022-11-21T06:38:42;5.30;;;2.52;;
29478;SDS011;16437;41.836;23.480;2022-11-21T06:44:09;3.90;;;2.60;;
29478;SDS011;16437;41.836;23.480;2022-11-21T06:49:36;5.67;;;2.98;;
29478;SDS011;16437;41.836;23.480;2022-11-21T06:55:02;5.42;;;2.90;;
29478;SDS011;16437;41.836;23.480;2022-11-21T07:00:29;5.87;;;3.12;;
29478;SDS011;16437;41.836;23.480;2022-11-21T07:05:55;5.10;;;3.05;;
29478;SDS011;16437;41.836;23.480;2022-11-21T07:11:25;5.25;;;3.12;;
29478;SDS011;16437;41.836;23.480;2022-11-21T07:16:51;6.15;;;3.55;;
29478;SDS011;16437;41.836;23.480;2022-11-21T07:22:18;6.90;;;3.55;;
29478;SDS011;16437;41.836;23.480;2022-11-21T07:27:44;8.53;;;4.10;;
29478;SDS011;16437;41.836;23.480;2022-11-21T07:33:11;5.78;;;3.80;;
29478;SDS011;16437;41.836;23.480;2022-11-21T07:38:37;7.87;;;4.25;;
29478;SDS011;16437;41.836;23.480;2022-11-21T07:44:04;5.80;;;3.83;;
29478;SDS011;16437;41.836;23.480;2022-11-21T07:49:31;6.35;;;4.20;;
29478;SDS011;16437;41.836;23.480;2022-11-21T07:54:57;11.63;;;6.97;;
29478;SDS011;16437;41.836;23.480;2022-11-21T08:00:26;9.20;;;5.12;;
29478;SDS011;16437;41.836;23.480;2022-11-21T08:05:54;9.00;;;5.40;;
29478;SDS011;16437;41.836;23.480;2022-11-21T08:11:20;14.40;;;6.95;;
29478;SDS011;16437;41.836;23.480;2022-11-21T08:16:46;15.68;;;8.63;;
29478;SDS011;16437;41.836;23.480;2022-11-21T08:22:16;14.98;;;8.38;;
29478;SDS011;16437;41.836;23.480;2022-11-21T08:27:43;14.80;;;7.47;;
29478;SDS011;16437;41.836;23.480;2022-11-21T08:33:09;12.50;;;7.03;;
29478;SDS011;16437;41.836;23.480;2022-11-21T08:38:35;12.37;;;6.37;;
29478;SDS011;16437;41.836;23.480;2022-11-21T08:44:02;11.68;;;6.20;;
29478;SDS011;16437;41.836;23.480;2022-11-21T08:49:30;11.40;;;6.30;;
29478;SDS011;16437;41.836;23.480;2022-11-21T08:54:56;10.43;;;5.70;;
29478;SDS011;16437;41.836;23.480;2022-11-21T09:00:23;9.78;;;5.22;;
29478;SDS011;16437;41.836;23.480;2022-11-21T09:05:50;8.28;;;5.05;;
29478;SDS011;16437;41.836;23.480;2022-11-21T09:11:17;9.03;;;5.55;;
29478;SDS011;16437;41.836;23.480;2022-11-21T09:16:43;8.28;;;4.62;;
29478;SDS011;16437;41.836;23.480;2022-11-21T09:22:28;9.73;;;5.28;;
29478;SDS011;16437;41.836;23.480;2022-11-21T09:27:57;7.70;;;5.42;;
29478;SDS011;16437;41.836;23.480;2022-11-21T09:33:26;8.68;;;4.75;;
29478;SDS011;16437;41.836;23.480;2022-11-21T09:38:53;10.98;;;5.53;;
29478;SDS011;16437;41.836;23.480;2022-11-21T09:44:36;10.68;;;5.08;;
29478;SDS011;16437;41.836;23.480;2022-11-21T09:50:20;11.12;;;5.78;;
29478;SDS011;16437;41.836;23.480;2022-11-21T10:01:38;9.88;;;5.05;;
29478;SDS011;16437;41.836;23.480;2022-11-21T10:07:12;10.10;;;5.33;;
29478;SDS011;16437;41.836;23.480;2022-11-21T10:24:29;12.45;;;5.67;;
29478;SDS011;16437;41.836;23.480;2022-11-21T10:30:21;11.08;;;5.65;;
29478;SDS011;16437;41.836;23.480;2022-11-21T10:35:45;11.70;;;5.42;;
29478;SDS011;16437;41.836;23.480;2022-11-21T10:41:15;10.40;;;6.00;;
29478;SDS011;16437;41.836;23.480;2022-11-21T10:46:55;10.43;;;5.42;;
29478;SDS011;16437;41.836;23.480;2022-11-21T10:52:22;7.65;;;5.10;;
29478;SDS011;16437;41.836;23.480;2022-11-21T10:57:51;8.40;;;5.55;;
29478;SDS011;16437;41.836;23.480;2022-11-21T11:03:19;9.90;;;5.72;;
29478;SDS011;16437;41.836;23.480;2022-11-21T11:08:49;7.62;;;4.95;;
29478;SDS011;16437;41.836;23.480;2022-11-21T11:14:20;8.75;;;5.37;;
29478;SDS011;16437;41.836;23.480;2022-11-21T11:20:05;9.88;;;5.33;;
29478;SDS011;16437;41.836;23.480;2022-11-21T11:31:00;9.55;;;5.20;;
29478;SDS011;16437;41.836;23.480;2022-11-21T11:37:11;8.95;;;5.17;;
29478;SDS011;16437;41.836;23.480;2022-11-21T11:53:44;11.18;;;5.85;;
29478;SDS011;16437;41.836;23.480;2022-11-21T12:04:49;9.70;;;5.72;;
29478;SDS011;16437;41.836;23.480;2022-11-21T12:10:23;10.20;;;5.70;;
29478;SDS011;16437;41.836;23.480;2022-11-21T12:16:21;9.45;;;6.20;;
29478;SDS011;16437;41.836;23.480;2022-11-21T12:21:50;11.65;;;6.33;;
29478;SDS011;16437;41.836;23.480;2022-11-21T12:27:27;10.03;;;5.37;;
29478;SDS011;16437;41.836;23.480;2022-11-21T12:32:58;9.13;;;6.25;;
29478;SDS011;16437;41.836;23.480;2022-11-21T12:38:29;8.53;;;5.60;;
29478;SDS011;16437;41.836;23.480;2022-11-21T12:44:08;8.63;;;5.42;;
29478;SDS011;16437;41.836;23.480;2022-11-21T12:49:40;9.38;;;5.40;;
29478;SDS011;16437;41.836;23.480;2022-11-21T12:55:36;8.85;;;5.55;;
29478;SDS011;16437;41.836;23.480;2022-11-21T13:07:07;10.08;;;6.00;;
29478;SDS011;16437;41.836;23.480;2022-11-21T13:23:45;10.03;;;6.05;;
29478;SDS011;16437;41.836;23.480;2022-11-21T13:29:11;10.95;;;6.75;;
29478;SDS011;16437;41.836;23.480;2022-11-21T13:34:39;9.55;;;6.03;;
29478;SDS011;16437;41.836;23.480;2022-11-21T13:45:54;9.93;;;6.15;;
29478;SDS011;16437;41.836;23.480;2022-11-21T14:14:53;8.28;;;5.10;;
29478;SDS011;16437;41.836;23.480;2022-11-21T14:25:55;6.50;;;4.42;;
29478;SDS011;16437;41.836;23.480;2022-11-21T14:31:42;7.50;;;4.90;;
29478;SDS011;16437;41.836;23.480;2022-11-21T14:37:01;8.53;;;5.28;;
29478;SDS011;16437;41.836;23.480;2022-11-21T14:42:33;9.35;;;5.85;;
29478;SDS011;16437;41.836;23.480;2022-11-21T14:48:00;6.80;;;3.85;;
29478;SDS011;16437;41.836;23.480;2022-11-21T14:53:28;7.83;;;4.85;;
29478;SDS011;16437;41.836;23.480;2022-11-21T14:58:57;6.40;;;4.37;;
29478;SDS011;16437;41.836;23.480;2022-11-21T15:04:28;8.03;;;4.35;;
29478;SDS011;16437;41.836;23.480;2022-11-21T15:09:56;6.20;;;3.67;;
29478;SDS011;16437;41.836;23.480;2022-11-21T15:15:33;5.87;;;4.05;;
29478;SDS011;16437;41.836;23.480;2022-11-21T15:21:02;8.23;;;4.17;;
29478;SDS011;16437;41.836;23.480;2022-11-21T15:26:30;6.70;;;4.05;;
29478;SDS011;16437;41.836;23.480;2022-11-21T15:32:06;7.12;;;4.42;;
29478;SDS011;16437;41.836;23.480;2022-11-21T15:37:33;5.78;;;3.50;;
29478;SDS011;16437;41.836;23.480;2022-11-21T15:43:00;4.25;;;2.92;;
29478;SDS011;16437;41.836;23.480;2022-11-21T15:48:27;4.37;;;2.95;;
29478;SDS011;16437;41.836;23.480;2022-11-21T15:53:54;4.20;;;2.70;;
29478;SDS011;16437;41.836;23.480;2022-11-21T15:59:20;4.90;;;3.10;;
29478;SDS011;16437;41.836;23.480;2022-11-21T16:04:47;5.30;;;2.87;;
29478;SDS011;16437;41.836;23.480;2022-11-21T16:10:13;5.85;;;2.75;;
29478;SDS011;16437;41.836;23.480;2022-11-21T16:15:39;4.47;;;2.60;;
29478;SDS011;16437;41.836;23.480;2022-11-21T16:21:06;6.25;;;2.67;;
29478;SDS011;16437;41.836;23.480;2022-11-21T16:26:34;4.65;;;2.70;;
29478;SDS011;16437;41.836;23.480;2022-11-21T16:32:01;4.25;;;2.75;;
29478;SDS011;16437;41.836;23.480;2022-11-21T16:37:27;5.20;;;3.08;;
29478;SDS011;16437;41.836;23.480;2022-11-21T16:43:05;8.38;;;4.72;;
29478;SDS011;16437;41.836;23.480;2022-11-21T16:48:33;6.22;;;4.08;;
29478;SDS011;16437;41.836;23.480;2022-11-21T16:54:00;10.20;;;4.75;;
29478;SDS011;16437;41.836;23.480;2022-11-21T16:59:27;8.85;;;5.20;;
29478;SDS011;16437;41.836;23.480;2022-11-21T17:04:53;8.80;;;4.92;;
29478;SDS011;16437;41.836;23.480;2022-11-21T17:10:19;10.30;;;4.92;;
29478;SDS011;16437;41.836;23.480;2022-11-21T17:15:45;9.43;;;5.37;;
29478;SDS011;16437;41.836;23.480;2022-11-21T17:21:13;9.30;;;5.90;;
29478;SDS011;16437;41.836;23.480;2022-11-21T17:26:40;10.65;;;6.65;;
29478;SDS011;16437;41.836;23.480;2022-11-21T17:32:07;13.35;;;7.65;;
29478;SDS011;16437;41.836;23.480;2022-11-21T17:37:33;12.60;;;5.67;;
29478;SDS011;16437;41.836;23.480;2022-11-21T17:42:59;7.95;;;4.30;;
29478;SDS011;16437;41.836;23.480;2022-11-21T17:48:26;7.33;;;3.92;;
29478;SDS011;16437;41.836;23.480;2022-11-21T17:53:53;6.70;;;3.60;;
29478;SDS011;16437;41.836;23.480;2022-11-21T17:59:19;6.40;;;3.25;;
29478;SDS011;16437;41.836;23.480;2022-11-21T18:04:45;5.40;;;2.95;;
29478;SDS011;16437;41.836;23.480;2022-11-21T18:10:13;8.95;;;3.72;;
29478;SDS011;16437;41.836;23.480;2022-11-21T18:15:39;6.42;;;3.77;;
29478;SDS011;16437;41.836;23.480;2022-11-21T18:21:07;7.37;;;4.28;;
29478;SDS011;16437;41.836;23.480;2022-11-21T18:26:35;6.70;;;3.85;;
29478;SDS011;16437;41.836;23.480;2022-11-21T18:32:03;6.75;;;3.75;;
29478;SDS011;16437;41.836;23.480;2022-11-21T18:37:32;5.65;;;3.17;;
29478;SDS011;16437;41.836;23.480;2022-11-21T18:42:58;7.60;;;4.05;;
29478;SDS011;16437;41.836;23.480;2022-11-21T18:48:25;5.28;;;3.12;;
29478;SDS011;16437;41.836;23.480;2022-11-21T18:53:53;6.80;;;3.60;;
29478;SDS011;16437;41.836;23.480;2022-11-21T18:59:21;5.55;;;4.00;;
29478;SDS011;16437;41.836;23.480;2022-11-21T19:04:47;6.55;;;5.25;;
29478;SDS011;16437;41.836;23.480;2022-11-21T19:10:14;12.30;;;7.97;;
29478;SDS011;16437;41.836;23.480;2022-11-21T19:15:41;11.63;;;8.70;;
29478;SDS011;16437;41.836;23.480;2022-11-21T19:21:12;12.68;;;9.23;;
29478;SDS011;16437;41.836;23.480;2022-11-21T19:32:05;12.98;;;8.28;;
29478;SDS011;16437;41.836;23.480;2022-11-21T19:37:32;14.43;;;9.25;;
29478;SDS011;16437;41.836;23.480;2022-11-21T19:42:59;16.20;;;9.40;;
29478;SDS011;16437;41.836;23.480;2022-11-21T19:48:25;11.18;;;8.13;;
29478;SDS011;16437;41.836;23.480;2022-11-21T19:53:52;10.60;;;7.10;;
29478;SDS011;16437;41.836;23.480;2022-11-21T19:59:18;10.10;;;7.37;;
29478;SDS011;16437;41.836;23.480;2022-11-21T20:04:45;12.65;;;8.83;;
29478;SDS011;16437;41.836;23.480;2022-11-21T20:10:11;11.60;;;8.20;;
29478;SDS011;16437;41.836;23.480;2022-11-21T20:15:38;10.98;;;7.85;;
29478;SDS011;16437;41.836;23.480;2022-11-21T20:21:15;9.60;;;6.62;;
29478;SDS011;16437;41.836;23.480;2022-11-21T20:32:03;8.85;;;6.28;;
29478;SDS011;16437;41.836;23.480;2022-11-21T20:37:30;11.53;;;6.83;;
29478;SDS011;16437;41.836;23.480;2022-11-21T20:42:56;9.63;;;6.62;;
29478;SDS011;16437;41.836;23.480;2022-11-21T20:48:22;8.90;;;5.90;;
29478;SDS011;16437;41.836;23.480;2022-11-21T20:53:49;9.45;;;5.85;;
29478;SDS011;16437;41.836;23.480;2022-11-21T20:59:16;8.10;;;5.60;;
29478;SDS011;16437;41.836;23.480;2022-11-21T21:04:42;9.28;;;5.60;;
29478;SDS011;16437;41.836;23.480;2022-11-21T21:10:09;8.23;;;5.72;;
29478;SDS011;16437;41.836;23.480;2022-11-21T21:15:35;10.20;;;6.30;;
29478;SDS011;16437;41.836;23.480;2022-11-21T21:21:03;13.90;;;7.30;;
29478;SDS011;16437;41.836;23.480;2022-11-21T21:26:31;11.20;;;7.30;;
29478;SDS011;16437;41.836;23.480;2022-11-21T21:37:28;11.43;;;7.83;;
29478;SDS011;16437;41.836;23.480;2022-11-21T21:42:54;16.97;;;9.00;;
29478;SDS011;16437;41.836;23.480;2022-11-21T21:48:21;12.23;;;7.65;;
29478;SDS011;16437;41.836;23.480;2022-11-21T21:53:48;12.45;;;7.10;;
29478;SDS011;16437;41.836;23.480;2022-11-21T21:59:14;9.50;;;5.80;;
29478;SDS011;16437;41.836;23.480;2022-11-21T22:04:43;11.78;;;6.00;;
29478;SDS011;16437;41.836;23.480;2022-11-21T22:10:10;10.98;;;4.90;;
29478;SDS011;16437;41.836;23.480;2022-11-21T22:15:36;7.75;;;4.92;;
29478;SDS011;16437;41.836;23.480;2022-11-21T22:26:44;6.22;;;4.25;;
29478;SDS011;16437;41.836;23.480;2022-11-21T22:32:11;6.58;;;4.15;;
29478;SDS011;16437;41.836;23.480;2022-11-21T22:37:37;6.85;;;4.37;;
29478;SDS011;16437;41.836;23.480;2022-11-21T22:43:03;6.75;;;4.00;;
29478;SDS011;16437;41.836;23.480;2022-11-21T22:48:30;6.72;;;3.77;;
29478;SDS011;16437;41.836;23.480;2022-11-21T22:53:58;4.30;;;3.15;;
29478;SDS011;16437;41.836;23.480;2022-11-21T22:59:25;4.22;;;2.90;;
29478;SDS011;16437;41.836;23.480;2022-11-21T23:04:51;5.33;;;2.80;;
29478;SDS011;16437;41.836;23.480;2022-11-21T23:10:17;4.22;;;2.80;;
29478;SDS011;16437;41.836;23.480;2022-11-21T23:15:44;3.75;;;2.67;;
29478;SDS011;16437;41.836;23.480;2022-11-21T23:21:11;4.28;;;2.70;;
29478;SDS011;16437;41.836;23.480;2022-11-21T23:26:38;3.92;;;2.60;;
29478;SDS011;16437;41.836;23.480;2022-11-21T23:32:04;2.92;;;2.02;;
29478;SDS011;16437;41.836;23.480;2022-11-21T23:37:31;2.83;;;2.30;;
29478;SDS011;16437;41.836;23.480;2022-11-21T23:42:57;3.55;;;2.27;;
29478;SDS011;16437;41.836;23.480;2022-11-21T23:48:25;3.02;;;1.98;;
29478;SDS011;16437;41.836;23.480;2022-11-21T23:53:51;4.25;;;2.30;;
29478;SDS011;16437;41.836;23.480;2022-11-21T23:59:17;2.25;;;1.90;;
